Terminal Aerodrome Forecast
Issued by NWS

Home | Current Version | Previous Version | Text Only | Print | Product List | Glossary On
Versions: 1 2 3 4 5 6 7 8 9 10 11 12 13 14 15 16
760
FTUS42 KTAE 272338
TAFVLD
TAF
KVLD 272338Z 2800/2824 18003KT P6SM BKN050
     FM280800 00000KT 3SM BR OVC005
     FM281000 00000KT 1SM BR OVC002
     FM281500 17006KT P6SM BKN015
     FM281900 18009KT P6SM SCT025=

USA.gov is the U.S. government's official web portal to all federal, state and local government web resources and services.